createdAt,value
2022-11-08T00:01:11.143Z,1.75
2022-11-08T00:03:38.003Z,1.72
2022-11-08T00:06:04.545Z,1.74
2022-11-08T00:08:31.085Z,1.77
2022-11-08T00:11:04.926Z,1.80
2022-11-08T00:13:31.383Z,1.79
2022-11-08T00:16:00.655Z,1.74
2022-11-08T00:18:27.368Z,1.70
2022-11-08T00:20:53.933Z,1.66
2022-11-08T00:23:20.471Z,1.65
2022-11-08T00:25:53.513Z,1.64
2022-11-08T00:28:20.440Z,1.64
2022-11-08T00:30:47.020Z,1.64
2022-11-08T00:33:13.500Z,1.65
2022-11-08T00:35:39.943Z,1.67
2022-11-08T00:38:06.635Z,1.68
2022-11-08T00:40:34.863Z,1.71
2022-11-08T00:43:01.371Z,1.77
2022-11-08T00:45:27.848Z,1.75
2022-11-08T00:47:54.388Z,1.72
2022-11-08T00:50:20.922Z,1.67
2022-11-08T00:52:47.668Z,1.64
2022-11-08T00:55:14.141Z,1.62
2022-11-08T00:57:58.440Z,1.60
2022-11-08T01:00:26.128Z,1.59
2022-11-08T01:02:52.668Z,1.61
2022-11-08T01:05:19.209Z,1.63
2022-11-08T01:07:45.751Z,1.65
2022-11-08T01:10:12.194Z,1.68
2022-11-08T01:12:38.729Z,1.71
2022-11-08T01:15:06.272Z,1.75
2022-11-08T01:17:32.842Z,1.78
2022-11-08T01:19:59.377Z,1.82
2022-11-08T01:22:27.589Z,1.87
2022-11-08T01:24:54.092Z,1.91
2022-11-08T01:27:20.634Z,1.95
2022-11-08T01:29:47.119Z,1.98
2022-11-08T01:32:13.713Z,2.05
2022-11-08T01:34:40.346Z,2.13
2022-11-08T01:37:06.901Z,2.19
2022-11-08T01:39:33.463Z,2.25
2022-11-08T01:41:59.984Z,2.29
2022-11-08T01:44:26.431Z,2.34
2022-11-08T01:46:53.067Z,2.38
2022-11-08T01:49:33.425Z,2.42
2022-11-08T01:52:18.602Z,2.47
2022-11-08T01:55:15.050Z,2.52
2022-11-08T01:57:50.922Z,2.55
2022-11-08T02:00:17.957Z,2.58
2022-11-08T02:02:49.715Z,2.59
2022-11-08T02:05:18.300Z,2.62
2022-11-08T02:07:44.782Z,2.64
2022-11-08T02:10:11.692Z,2.68
2022-11-08T02:12:38.174Z,2.72
2022-11-08T02:15:05.284Z,2.75
2022-11-08T02:17:31.938Z,2.79
2022-11-08T02:19:58.451Z,2.83
2022-11-08T02:22:33.412Z,2.86
2022-11-08T02:24:59.969Z,2.90
2022-11-08T02:27:26.501Z,2.93
2022-11-08T02:29:54.380Z,2.95
2022-11-08T02:32:21.935Z,3.00
2022-11-08T02:34:56.156Z,3.02
2022-11-08T02:37:25.556Z,3.04
2022-11-08T02:39:52.105Z,3.06
2022-11-08T02:42:20.492Z,3.11
2022-11-08T02:44:47.617Z,3.15
2022-11-08T02:47:14.924Z,3.18
2022-11-08T02:49:41.752Z,3.22
2022-11-08T02:52:08.593Z,3.30
2022-11-08T02:54:35.138Z,3.35
2022-11-08T02:57:01.672Z,3.39
2022-11-08T02:59:28.213Z,3.43
2022-11-08T03:01:54.931Z,3.45
2022-11-08T03:04:21.910Z,3.41
2022-11-08T03:06:48.387Z,3.40
2022-11-08T03:09:14.890Z,3.40
2022-11-08T03:11:41.635Z,3.40
2022-11-08T03:14:08.385Z,3.38
2022-11-08T03:16:34.920Z,3.36
2022-11-08T03:19:01.453Z,3.34
2022-11-08T03:21:27.996Z,3.32
2022-11-08T03:23:54.670Z,3.32
2022-11-08T03:26:21.180Z,3.32
2022-11-08T03:28:47.725Z,3.33
2022-11-08T03:31:14.163Z,3.33
2022-11-08T03:33:40.706Z,3.35
2022-11-08T03:36:07.980Z,3.35
2022-11-08T03:38:34.413Z,3.34
2022-11-08T03:41:00.833Z,3.35
2022-11-08T03:43:27.336Z,3.35
2022-11-08T03:45:53.811Z,3.36
2022-11-08T03:48:20.605Z,3.38
2022-11-08T03:50:47.392Z,3.37
2022-11-08T03:53:13.849Z,3.37
2022-11-08T03:55:40.385Z,3.37
2022-11-08T03:58:07.030Z,3.37
2022-11-08T04:00:33.975Z,3.38
2022-11-08T04:03:03.117Z,3.37
2022-11-08T04:05:31.008Z,3.37
2022-11-08T04:07:57.904Z,3.36
2022-11-08T04:10:24.340Z,3.35
2022-11-08T04:12:50.816Z,3.35
2022-11-08T04:15:20.818Z,3.30
2022-11-08T04:17:50.755Z,3.26
2022-11-08T04:20:17.258Z,3.26
2022-11-08T04:22:43.696Z,3.23
2022-11-08T04:25:10.241Z,3.17
2022-11-08T04:27:36.808Z,3.12
2022-11-08T04:30:03.956Z,3.07
2022-11-08T04:32:30.472Z,3.03
2022-11-08T04:34:56.909Z,2.98
2022-11-08T04:37:23.451Z,2.95
2022-11-08T04:39:50.052Z,2.90
2022-11-08T04:42:16.467Z,2.87
2022-11-08T04:44:42.963Z,2.86
2022-11-08T04:47:09.503Z,2.86
2022-11-08T04:49:36.046Z,2.80
2022-11-08T04:52:02.589Z,2.79
2022-11-08T04:54:29.063Z,2.76
2022-11-08T04:56:55.570Z,2.70
2022-11-08T04:59:22.220Z,2.64
2022-11-08T05:01:48.832Z,2.58
2022-11-08T05:04:15.591Z,2.55
2022-11-08T05:06:42.033Z,2.52
2022-11-08T05:09:10.315Z,2.52
2022-11-08T05:11:36.763Z,2.54
2022-11-08T05:14:03.299Z,2.58
2022-11-08T05:16:32.243Z,2.64
2022-11-08T05:18:59.773Z,2.71
2022-11-08T05:21:26.916Z,2.78
2022-11-08T05:23:53.371Z,2.83
2022-11-08T05:26:20.307Z,2.87
2022-11-08T05:28:47.884Z,2.91
2022-11-08T05:31:14.875Z,2.96
2022-11-08T05:33:41.975Z,2.99
2022-11-08T05:36:11.757Z,3.02
2022-11-08T05:38:39.829Z,3.07
2022-11-08T05:41:13.075Z,3.10
2022-11-08T05:43:40.324Z,3.14
2022-11-08T05:46:07.478Z,3.18
2022-11-08T05:48:34.637Z,3.23
2022-11-08T05:51:01.587Z,3.28
2022-11-08T05:53:28.075Z,3.34
2022-11-08T05:56:02.506Z,3.40
2022-11-08T05:58:31.241Z,3.46
2022-11-08T06:01:12.817Z,3.50
2022-11-08T06:03:39.530Z,3.56
2022-11-08T06:06:09.407Z,3.62
2022-11-08T06:08:35.933Z,3.66
2022-11-08T06:11:07.800Z,3.69
2022-11-08T06:13:35.071Z,3.70
2022-11-08T06:16:03.637Z,3.71
2022-11-08T06:18:31.309Z,3.72
2022-11-08T06:20:59.242Z,3.76
2022-11-08T06:23:25.936Z,3.90
2022-11-08T06:25:52.471Z,4.16
2022-11-08T06:28:19.521Z,4.47
2022-11-08T06:30:47.189Z,4.75
2022-11-08T06:33:14.087Z,5.05
2022-11-08T06:35:40.780Z,5.33
2022-11-08T06:38:09.460Z,5.60
2022-11-08T06:40:38.082Z,5.81
2022-11-08T06:43:04.814Z,6.13
2022-11-08T06:45:31.961Z,6.47
2022-11-08T06:48:02.597Z,6.72
2022-11-08T06:50:31.076Z,6.82
2022-11-08T06:52:58.420Z,6.97
2022-11-08T06:55:25.287Z,7.17
2022-11-08T06:57:51.941Z,7.35
2022-11-08T07:00:19.183Z,7.57
2022-11-08T07:02:45.861Z,7.68
2022-11-08T07:05:12.673Z,7.53
2022-11-08T07:07:39.416Z,7.26
2022-11-08T07:10:06.493Z,7.11
2022-11-08T07:12:33.012Z,7.07
2022-11-08T07:14:59.475Z,7.06
2022-11-08T07:17:26.090Z,7.07
2022-11-08T07:19:52.627Z,7.10
2022-11-08T07:22:19.127Z,7.17
2022-11-08T07:24:45.826Z,7.30
2022-11-08T07:27:12.252Z,7.37
2022-11-08T07:29:38.672Z,7.51
2022-11-08T07:32:05.132Z,7.59
2022-11-08T07:34:31.667Z,7.67
2022-11-08T07:36:58.207Z,7.83
2022-11-08T07:39:24.747Z,8.11
2022-11-08T07:41:51.174Z,8.43
2022-11-08T07:44:20.589Z,8.67
2022-11-08T07:46:47.440Z,8.83
2022-11-08T07:49:13.873Z,8.92
2022-11-08T07:51:40.336Z,8.93
2022-11-08T07:54:06.793Z,9.04
2022-11-08T07:56:33.227Z,9.15
2022-11-08T07:58:59.735Z,9.27
2022-11-08T08:01:26.198Z,9.42
2022-11-08T08:03:52.719Z,9.55
2022-11-08T08:06:19.249Z,9.71
2022-11-08T08:08:45.788Z,9.94
2022-11-08T08:11:12.222Z,10.26
2022-11-08T08:13:38.751Z,10.65
2022-11-08T08:16:05.328Z,11.05
2022-11-08T08:18:31.943Z,11.35
2022-11-08T08:20:59.253Z,11.55
2022-11-08T08:23:25.864Z,11.70
2022-11-08T08:25:52.526Z,11.76
2022-11-08T08:28:19.000Z,11.94
2022-11-08T08:30:45.482Z,12.08
2022-11-08T08:33:27.774Z,12.18
2022-11-08T08:35:55.951Z,12.34
2022-11-08T08:38:22.496Z,12.41
2022-11-08T08:40:48.928Z,12.56
2022-11-08T08:43:15.701Z,12.56
2022-11-08T08:45:42.517Z,12.55
2022-11-08T08:48:09.155Z,12.59
2022-11-08T08:50:35.635Z,12.62
2022-11-08T08:53:04.517Z,12.80
2022-11-08T08:55:32.340Z,12.94
2022-11-08T08:57:58.903Z,13.27
2022-11-08T09:03:12.768Z,13.59
2022-11-08T09:05:40.439Z,13.64
2022-11-08T09:08:07.103Z,13.91
2022-11-08T09:10:33.926Z,14.12
2022-11-08T09:13:02.105Z,14.18
2022-11-08T09:15:28.647Z,14.17
2022-11-08T09:17:56.214Z,14.25
2022-11-08T09:20:23.743Z,14.28
2022-11-08T09:22:50.316Z,14.28
2022-11-08T09:25:17.372Z,14.34
2022-11-08T09:27:43.804Z,14.42
2022-11-08T09:30:10.651Z,14.36
2022-11-08T09:32:59.856Z,14.31
2022-11-08T09:35:24.518Z,14.14
2022-11-08T09:37:53.820Z,13.95
2022-11-08T09:40:37.418Z,13.98
2022-11-08T09:43:28.377Z,13.77
2022-11-08T09:45:54.879Z,13.52
2022-11-08T09:48:44.910Z,13.53
2022-11-08T09:51:17.490Z,13.69
2022-11-08T09:54:01.801Z,13.73
2022-11-08T09:56:37.916Z,13.91
2022-11-08T09:59:20.482Z,14.18
2022-11-08T10:01:48.889Z,14.09
2022-11-08T10:04:23.788Z,14.02
2022-11-08T10:07:23.780Z,14.08
2022-11-08T10:10:28.347Z,13.97
2022-11-08T10:13:12.879Z,14.08
2022-11-08T10:15:51.700Z,13.75
2022-11-08T10:18:34.518Z,13.44
2022-11-08T10:21:36.526Z,13.27
2022-11-08T10:24:21.576Z,13.13
2022-11-08T10:26:52.290Z,13.02
2022-11-08T10:29:25.411Z,13.01
2022-11-08T10:31:58.374Z,13.03
2022-11-08T10:34:29.023Z,13.12
2022-11-08T10:37:05.223Z,13.11
2022-11-08T10:39:38.060Z,13.03
2022-11-08T10:42:12.609Z,13.08
2022-11-08T10:44:41.129Z,13.24
2022-11-08T10:47:16.932Z,13.35
2022-11-08T10:49:44.010Z,13.52
2022-11-08T10:52:19.555Z,13.59
2022-11-08T10:54:56.765Z,13.66
2022-11-08T10:57:32.514Z,13.70
2022-11-08T11:00:37.721Z,13.74
2022-11-08T11:03:09.956Z,13.66
2022-11-08T11:05:54.951Z,13.60
2022-11-08T11:08:21.726Z,13.64
2022-11-08T11:10:49.823Z,13.68
2022-11-08T11:13:24.074Z,13.68
2022-11-08T11:16:00.531Z,13.65
2022-11-08T11:18:45.065Z,13.74
2022-11-08T11:21:20.860Z,13.80
2022-11-08T11:23:50.138Z,13.88
2022-11-08T11:26:31.308Z,14.05
2022-11-08T11:29:06.722Z,14.23
2022-11-08T11:31:39.248Z,14.43
2022-11-08T11:34:17.797Z,14.59
2022-11-08T11:37:24.992Z,14.72
2022-11-08T11:40:07.073Z,14.94
2022-11-08T11:42:47.149Z,15.05
2022-11-08T11:45:28.721Z,15.18
2022-11-08T11:47:56.798Z,15.15
2022-11-08T11:50:34.446Z,15.18
2022-11-08T11:53:06.992Z,15.25
2022-11-08T11:55:39.441Z,15.21
2022-11-08T11:58:42.150Z,15.22
2022-11-08T12:01:47.729Z,15.21
2022-11-08T12:04:58.609Z,15.32
2022-11-08T12:08:09.464Z,15.19
2022-11-08T12:11:20.341Z,15.14
2022-11-08T12:14:31.923Z,15.15
2022-11-08T12:17:42.413Z,15.11
2022-11-08T12:20:53.400Z,14.91
2022-11-08T12:24:04.690Z,14.90
2022-11-08T12:26:56.315Z,15.02
2022-11-08T12:30:07.913Z,15.16
2022-11-08T12:33:18.903Z,15.23
2022-11-08T12:36:29.987Z,15.35
2022-11-08T12:39:40.478Z,15.37
2022-11-08T12:42:51.552Z,15.29
2022-11-08T12:45:55.233Z,15.23
2022-11-08T12:48:46.551Z,15.30
2022-11-08T12:51:25.818Z,15.34
2022-11-08T12:54:14.176Z,15.27
2022-11-08T12:56:44.514Z,15.10
2022-11-08T12:59:17.316Z,14.97
2022-11-08T13:01:44.522Z,15.03
2022-11-08T13:04:17.771Z,15.09
2022-11-08T13:07:02.874Z,15.14
2022-11-08T13:09:53.625Z,15.18
2022-11-08T13:12:40.664Z,15.21
2022-11-08T13:15:22.552Z,15.28
2022-11-08T13:18:07.421Z,15.17
2022-11-08T13:20:40.610Z,14.94
2022-11-08T13:23:12.821Z,14.83
2022-11-08T13:25:40.966Z,14.82
2022-11-08T13:28:46.671Z,14.82
2022-11-08T13:31:32.124Z,14.95
2022-11-08T13:34:07.379Z,15.06
2022-11-08T13:36:51.311Z,15.10
2022-11-08T13:39:42.324Z,15.11
2022-11-08T13:42:18.076Z,15.08
2022-11-08T13:44:56.860Z,14.96
2022-11-08T13:47:46.587Z,14.81
2022-11-08T13:50:28.296Z,14.69
2022-11-08T13:53:09.978Z,14.57
2022-11-08T13:55:42.508Z,14.51
2022-11-08T13:58:37.257Z,14.46
2022-11-08T14:01:20.640Z,14.35
2022-11-08T14:03:47.239Z,14.28
2022-11-08T14:06:24.381Z,14.20
2022-11-08T14:09:09.095Z,14.06
2022-11-08T14:12:01.761Z,13.76
2022-11-08T14:14:38.987Z,13.62
2022-11-08T14:17:14.387Z,13.59
2022-11-08T14:19:43.592Z,13.55
2022-11-08T14:22:23.336Z,13.52
2022-11-08T14:24:52.912Z,13.53
2022-11-08T14:27:39.787Z,13.51
2022-11-08T14:30:15.620Z,13.44
2022-11-08T14:32:42.158Z,13.24
2022-11-08T14:35:12.863Z,12.94
2022-11-08T14:37:42.913Z,12.68
2022-11-08T14:40:24.194Z,12.45
2022-11-08T14:42:52.574Z,12.23
2022-11-08T14:45:25.509Z,12.05
2022-11-08T14:47:57.673Z,11.88
2022-11-08T14:50:30.980Z,11.72
2022-11-08T14:53:17.721Z,11.57
2022-11-08T14:55:45.115Z,11.41
2022-11-08T14:58:15.641Z,11.27
2022-11-08T15:00:43.668Z,11.12
2022-11-08T15:03:19.809Z,10.97
2022-11-08T15:06:01.688Z,10.82
2022-11-08T15:08:35.083Z,10.68
2022-11-08T15:11:09.041Z,10.56
2022-11-08T15:13:42.913Z,10.41
2022-11-08T15:16:10.566Z,10.26
2022-11-08T15:18:42.227Z,10.13
2022-11-08T15:21:11.844Z,10.01
2022-11-08T15:23:48.921Z,9.87
2022-11-08T15:26:33.994Z,9.64
2022-11-08T15:29:14.053Z,9.34
2022-11-08T15:32:01.466Z,9.10
2022-11-08T15:34:37.341Z,8.88
2022-11-08T15:37:27.122Z,8.67
2022-11-08T15:39:54.887Z,8.44
2022-11-08T15:42:21.963Z,8.26
2022-11-08T15:45:17.846Z,8.09
2022-11-08T15:47:47.173Z,7.92
2022-11-08T15:50:16.370Z,7.81
2022-11-08T15:52:43.373Z,7.71
2022-11-08T15:55:15.341Z,7.61
2022-11-08T15:57:44.209Z,7.53
2022-11-08T16:00:15.064Z,7.43
2022-11-08T16:02:41.559Z,7.37
2022-11-08T16:05:23.158Z,7.33
2022-11-08T16:07:50.606Z,7.31
2022-11-08T16:10:20.314Z,7.28
2022-11-08T16:12:47.881Z,7.22
2022-11-08T16:15:17.514Z,7.11
2022-11-08T16:17:44.034Z,6.99
2022-11-08T16:20:29.110Z,6.87
2022-11-08T16:23:00.563Z,6.75
2022-11-08T16:25:28.027Z,6.66
2022-11-08T16:28:03.644Z,6.57
2022-11-08T16:30:33.375Z,6.52
2022-11-08T16:33:00.754Z,6.47
2022-11-08T16:35:27.297Z,6.43
2022-11-08T16:37:53.930Z,6.36
2022-11-08T16:40:24.873Z,6.28
2022-11-08T16:42:53.321Z,6.18
2022-11-08T16:45:37.302Z,6.10
2022-11-08T16:48:16.207Z,6.06
2022-11-08T16:50:43.164Z,6.03
2022-11-08T16:53:15.872Z,5.99
2022-11-08T16:55:42.344Z,5.93
2022-11-08T16:58:08.844Z,5.88
2022-11-08T17:00:36.782Z,5.84
2022-11-08T17:03:03.288Z,5.79
2022-11-08T17:05:29.793Z,5.71
2022-11-08T17:07:56.849Z,5.64
2022-11-08T17:10:25.848Z,5.57
2022-11-08T17:12:53.094Z,5.50
2022-11-08T17:15:22.489Z,5.44
2022-11-08T17:17:49.120Z,5.39
2022-11-08T17:20:17.755Z,5.32
2022-11-08T17:22:45.397Z,5.25
2022-11-08T17:25:15.690Z,5.20
2022-11-08T17:27:43.091Z,5.13
2022-11-08T17:30:11.970Z,5.06
2022-11-08T17:32:40.057Z,5.00
2022-11-08T17:35:08.760Z,5.00
2022-11-08T17:37:36.002Z,5.03
2022-11-08T17:40:04.719Z,5.10
2022-11-08T17:42:34.168Z,5.16
2022-11-08T17:45:04.529Z,5.20
2022-11-08T17:47:30.996Z,5.24
2022-11-08T17:49:57.510Z,5.27
2022-11-08T17:52:23.962Z,5.22
2022-11-08T17:54:53.082Z,5.18
2022-11-08T17:57:19.926Z,5.16
2022-11-08T17:59:46.733Z,5.12
2022-11-08T18:02:13.317Z,5.08
2022-11-08T18:04:39.905Z,5.02
2022-11-08T18:07:06.669Z,4.97
2022-11-08T18:09:33.342Z,4.94
2022-11-08T18:12:00.038Z,4.89
2022-11-08T18:14:28.596Z,4.88
2022-11-08T18:16:55.983Z,4.87
2022-11-08T18:19:23.035Z,4.84
2022-11-08T18:21:49.723Z,4.81
2022-11-08T18:24:16.658Z,4.79
2022-11-08T18:26:43.882Z,4.75
2022-11-08T18:29:10.429Z,4.71
2022-11-08T18:31:36.960Z,4.70
2022-11-08T18:34:03.541Z,4.68
2022-11-08T18:36:31.378Z,4.65
2022-11-08T18:39:01.509Z,4.62
2022-11-08T18:41:31.042Z,4.59
2022-11-08T18:43:59.465Z,4.54
2022-11-08T18:46:28.426Z,4.52
2022-11-08T18:48:55.544Z,4.50
2022-11-08T18:51:23.000Z,4.41
2022-11-08T18:53:50.056Z,4.32
2022-11-08T18:56:16.635Z,4.23
2022-11-08T18:58:43.847Z,4.16
2022-11-08T19:01:10.583Z,4.11
2022-11-08T19:03:37.261Z,4.10
2022-11-08T19:06:04.287Z,4.07
2022-11-08T19:08:31.473Z,4.02
2022-11-08T19:11:00.268Z,3.99
2022-11-08T19:13:29.577Z,4.03
2022-11-08T19:15:57.168Z,4.04
2022-11-08T19:18:24.352Z,4.02
2022-11-08T19:20:59.310Z,3.96
2022-11-08T19:23:26.438Z,3.91
2022-11-08T19:26:00.848Z,3.84
2022-11-08T19:28:32.677Z,3.81
2022-11-08T19:31:00.300Z,3.78
2022-11-08T19:33:28.726Z,3.76
2022-11-08T19:35:59.778Z,3.73
2022-11-08T19:38:26.372Z,3.70
2022-11-08T19:40:53.164Z,3.69
2022-11-08T19:43:20.371Z,3.67
2022-11-08T19:45:53.927Z,3.65
2022-11-08T19:48:21.682Z,3.60
2022-11-08T19:50:48.725Z,3.56
2022-11-08T19:53:15.576Z,3.51
2022-11-08T19:55:48.688Z,3.45
2022-11-08T19:58:15.707Z,3.38
2022-11-08T20:00:42.753Z,3.33
2022-11-08T20:03:09.398Z,3.30
2022-11-08T20:05:36.263Z,3.28
2022-11-08T20:08:03.468Z,3.27
2022-11-08T20:10:30.384Z,3.26
2022-11-08T20:12:57.631Z,3.26
2022-11-08T20:15:24.591Z,3.26
2022-11-08T20:17:51.437Z,3.25
2022-11-08T20:20:18.147Z,3.21
2022-11-08T20:22:48.044Z,3.20
2022-11-08T20:25:15.013Z,3.18
2022-11-08T20:27:41.654Z,3.17
2022-11-08T20:30:09.091Z,3.14
2022-11-08T20:32:35.503Z,3.12
2022-11-08T20:35:04.185Z,3.09
2022-11-08T20:37:31.109Z,3.08
2022-11-08T20:39:57.640Z,3.05
2022-11-08T20:42:24.143Z,3.00
2022-11-08T20:44:50.810Z,2.95
2022-11-08T20:47:17.259Z,2.93
2022-11-08T20:49:43.800Z,2.89
2022-11-08T20:52:10.340Z,2.89
2022-11-08T20:54:42.703Z,2.87
2022-11-08T20:57:10.349Z,2.87
2022-11-08T20:59:36.929Z,2.83
2022-11-08T21:02:03.643Z,2.82
2022-11-08T21:04:30.316Z,2.80
2022-11-08T21:07:50.928Z,2.76
2022-11-08T21:09:50.078Z,2.74
2022-11-08T21:12:18.359Z,2.71
2022-11-08T21:14:44.942Z,2.67
2022-11-08T21:17:26.651Z,2.64
2022-11-08T21:19:53.154Z,2.62
2022-11-08T21:22:19.926Z,2.61
2022-11-08T21:24:48.060Z,2.59
2022-11-08T21:27:15.798Z,2.58
2022-11-08T21:29:42.408Z,2.59
2022-11-08T21:32:08.903Z,2.57
2022-11-08T21:34:35.388Z,2.54
2022-11-08T21:37:01.932Z,2.49
2022-11-08T21:39:28.472Z,2.45
2022-11-08T21:41:54.947Z,2.44
2022-11-08T21:44:21.360Z,2.43
2022-11-08T21:46:48.185Z,2.43
2022-11-08T21:49:14.730Z,2.42
2022-11-08T21:51:41.263Z,2.40
2022-11-08T21:54:07.914Z,2.38
2022-11-08T21:56:34.969Z,2.37
2022-11-08T21:59:02.072Z,2.35
2022-11-08T22:01:30.940Z,2.31
2022-11-08T22:03:59.193Z,2.28
2022-11-08T22:06:26.251Z,2.26
2022-11-08T22:08:53.041Z,2.28
2022-11-08T22:11:19.636Z,2.27
2022-11-08T22:13:46.090Z,2.27
2022-11-08T22:16:13.024Z,2.26
2022-11-08T22:21:26.442Z,2.24
2022-11-08T22:23:53.021Z,2.19
2022-11-08T22:26:19.470Z,2.14
2022-11-08T22:28:46.001Z,2.09
2022-11-08T22:31:12.549Z,2.05
2022-11-08T22:33:39.083Z,2.02
2022-11-08T22:36:06.239Z,2.02
2022-11-08T22:38:32.780Z,2.02
2022-11-08T22:40:59.240Z,2.01
2022-11-08T22:43:25.752Z,2.02
2022-11-08T22:45:52.294Z,2.03
2022-11-08T22:48:19.093Z,2.01
2022-11-08T22:50:45.849Z,2.00
2022-11-08T22:53:12.327Z,1.98
2022-11-08T22:55:38.749Z,1.94
2022-11-08T22:58:05.408Z,1.91
2022-11-08T23:00:31.891Z,1.89
2022-11-08T23:02:58.593Z,1.87
2022-11-08T23:05:25.132Z,1.85
2022-11-08T23:07:51.663Z,1.82
2022-11-08T23:10:18.417Z,1.80
2022-11-08T23:12:45.081Z,1.81
2022-11-08T23:15:11.605Z,1.82
2022-11-08T23:17:38.143Z,1.82
2022-11-08T23:20:05.296Z,1.80
2022-11-08T23:22:31.843Z,1.75
2022-11-08T23:24:59.006Z,1.73
2022-11-08T23:27:27.890Z,1.75
2022-11-08T23:29:54.429Z,1.76
2022-11-08T23:32:20.974Z,1.77
2022-11-08T23:34:47.511Z,1.76
2022-11-08T23:37:14.358Z,1.72
2022-11-08T23:39:40.903Z,1.68
2022-11-08T23:42:07.342Z,1.68
2022-11-08T23:44:33.987Z,1.65
2022-11-08T23:47:01.453Z,1.60
2022-11-08T23:49:28.399Z,1.58
2022-11-08T23:51:55.161Z,1.54
2022-11-08T23:54:21.893Z,1.49
2022-11-08T23:56:49.168Z,1.44
2022-11-08T23:59:16.512Z,1.41
